Terminal Aerodrome Forecast
Issued by NWS

Home | Current Version | Previous Version | Text Only | Print | Product List | Glossary On
Versions: 1 2 3 4 5 6 7 8 9 10 11 12 13 14 15 16 17 18 19
000
FTUS46 KMFR 250903 AAB
TAFOTH
TAF AMD
KOTH 250903Z 2509/2606 VRB02KT 5SM BR BKN003
     FM251100 VRB02KT 1/2SM FG OVC001
     FM251700 VRB03KT 3SM BR OVC004
     FM252000 30007KT P6SM OVC008
     FM260300 23003KT 3SM BR OVC003=

USA.gov is the U.S. government's official web portal to all federal, state and local government web resources and services.